Time,TemperatureF,DewpointF,PressureIn,WindDirection,WindDirectionDegrees,WindSpeedMPH,WindSpeedGustMPH,Humidity,HourlyPrecipIn,Conditions,Clouds,dailyrainin,SoftwareType,DateUTC
2013-04-13 00:04:00,35.4,35.4,29.90,NNE,20,0.0,1.0,100,0.01,,,0.00,WUHU216DAVISWMX,2013-04-13 04:04:00,
2013-04-13 00:09:00,35.4,35.4,29.89,NNE,20,1.0,2.0,100,0.01,,,0.00,WUHU216DAVISWMX,2013-04-13 04:09:00,
2013-04-13 00:14:00,35.3,35.3,29.89,North,5,3.0,5.0,100,0.01,,,0.00,WUHU216DAVISWMX,2013-04-13 04:14:00,
2013-04-13 00:19:00,35.3,35.3,29.89,NNE,23,0.0,5.0,100,0.01,,,0.00,WUHU216DAVISWMX,2013-04-13 04:19:00,
2013-04-13 00:24:00,35.3,35.3,29.90,NNE,23,1.0,3.0,100,0.01,,,0.00,WUHU216DAVISWMX,2013-04-13 04:24:00,
2013-04-13 00:30:00,35.3,35.3,29.89,NNE,23,1.0,1.0,100,0.01,,,0.00,WUHU216DAVISWMX,2013-04-13 04:30:00,
2013-04-13 00:35:00,35.3,35.3,29.89,NNE,23,1.0,3.0,100,0.00,,,0.00,WUHU216DAVISWMX,2013-04-13 04:35:00,
2013-04-13 00:40:00,35.4,35.4,29.90,WNW,291,1.0,3.0,100,0.00,,,0.00,WUHU216DAVISWMX,2013-04-13 04:40:00,
2013-04-13 00:45:00,35.3,35.3,29.90,North,349,1.0,3.0,100,0.00,,,0.00,WUHU216DAVISWMX,2013-04-13 04:45:00,
2013-04-13 00:50:00,35.3,35.3,29.90,North,10,1.0,2.0,100,0.00,,,0.00,WUHU216DAVISWMX,2013-04-13 04:50:00,
2013-04-13 00:55:00,35.3,35.3,29.89,NNE,33,0.0,2.0,100,0.00,,,0.00,WUHU216DAVISWMX,2013-04-13 04:55:00,
2013-04-13 01:00:00,35.3,35.3,29.90,North,3,2.0,3.0,100,0.00,,,0.00,WUHU216DAVISWMX,2013-04-13 05:00:00,
2013-04-13 01:05:00,35.4,35.4,29.90,North,3,0.0,3.0,100,0.00,,,0.00,WUHU216DAVISWMX,2013-04-13 05:05:00,
2013-04-13 01:10:00,35.4,35.4,29.91,North,3,2.0,3.0,100,0.00,,,0.00,WUHU216DAVISWMX,2013-04-13 05:10:00,
2013-04-13 01:15:00,35.4,35.4,29.90,North,3,0.0,2.0,100,0.00,,,0.00,WUHU216DAVISWMX,2013-04-13 05:15:00,
2013-04-13 01:20:00,35.4,35.4,29.90,North,0,2.0,3.0,100,0.00,,,0.00,WUHU216DAVISWMX,2013-04-13 05:20:00,
2013-04-13 01:25:00,35.4,35.4,29.90,North,0,0.0,3.0,100,0.00,,,0.00,WUHU216DAVISWMX,2013-04-13 05:25:00,
2013-04-13 01:30:00,35.5,35.5,29.91,North,0,0.0,2.0,100,0.00,,,0.00,WUHU216DAVISWMX,2013-04-13 05:30:00,
2013-04-13 01:35:00,35.6,35.6,29.90,North,0,0.0,1.0,100,0.00,,,0.00,WUHU216DAVISWMX,2013-04-13 05:35:00,
2013-04-13 01:40:00,35.5,35.5,29.90,NNE,14,1.0,3.0,100,0.00,,,0.00,WUHU216DAVISWMX,2013-04-13 05:40:00,
2013-04-13 01:45:00,35.5,35.5,29.90,NNE,14,0.0,3.0,100,0.00,,,0.00,WUHU216DAVISWMX,2013-04-13 05:45:00,
2013-04-13 01:50:00,35.5,35.5,29.90,NNE,21,0.0,2.0,100,0.00,,,0.00,WUHU216DAVISWMX,2013-04-13 05:50:00,
2013-04-13 01:55:00,35.5,35.5,29.91,NNW,333,2.0,3.0,100,0.01,,,0.01,WUHU216DAVISWMX,2013-04-13 05:55:00,
2013-04-13 02:00:00,35.4,35.4,29.89,NNE,22,0.0,3.0,100,0.02,,,0.02,WUHU216DAVISWMX,2013-04-13 06:00:00,
2013-04-13 02:05:00,35.3,35.3,29.90,NNE,22,0.0,3.0,100,0.02,,,0.02,WUHU216DAVISWMX,2013-04-13 06:05:00,
2013-04-13 02:10:00,35.4,35.4,29.90,North,8,1.0,4.0,100,0.03,,,0.03,WUHU216DAVISWMX,2013-04-13 06:10:00,
2013-04-13 02:15:00,35.3,35.3,29.89,North,0,0.0,4.0,100,0.03,,,0.03,WUHU216DAVISWMX,2013-04-13 06:15:00,
2013-04-13 02:20:00,35.4,35.4,29.91,North,0,0.0,3.0,100,0.03,,,0.03,WUHU216DAVISWMX,2013-04-13 06:20:00,
2013-04-13 02:25:00,35.5,35.5,29.92,North,0,0.0,2.0,100,0.03,,,0.03,WUHU216DAVISWMX,2013-04-13 06:25:00,
2013-04-13 02:30:00,35.5,35.5,29.93,North,0,0.0,2.0,100,0.03,,,0.03,WUHU216DAVISWMX,2013-04-13 06:30:00,
2013-04-13 02:35:00,35.6,35.6,29.93,North,0,1.0,1.0,100,0.03,,,0.03,WUHU216DAVISWMX,2013-04-13 06:35:00,
2013-04-13 02:40:00,35.5,35.5,29.91,NE,36,0.0,4.0,100,0.04,,,0.04,WUHU216DAVISWMX,2013-04-13 06:40:00,
2013-04-13 02:45:00,35.3,35.3,29.90,NNE,22,0.0,4.0,100,0.05,,,0.05,WUHU216DAVISWMX,2013-04-13 06:45:00,
2013-04-13 02:50:00,35.4,35.4,29.88,NNE,22,0.0,1.0,100,0.06,,,0.06,WUHU216DAVISWMX,2013-04-13 06:50:00,
2013-04-13 02:55:00,35.3,35.3,29.88,East,86,0.0,2.0,100,0.07,,,0.08,WUHU216DAVISWMX,2013-04-13 06:55:00,
2013-04-13 03:00:00,35.2,35.2,29.89,NNE,25,1.0,3.0,100,0.07,,,0.09,WUHU216DAVISWMX,2013-04-13 07:00:00,
2013-04-13 03:05:00,35.2,35.2,29.87,ENE,59,0.0,3.0,100,0.07,,,0.09,WUHU216DAVISWMX,2013-04-13 07:05:00,
2013-04-13 03:11:00,35.1,35.1,29.87,NNE,17,0.0,4.0,100,0.06,,,0.09,WUHU216DAVISWMX,2013-04-13 07:11:00,
2013-04-13 03:16:00,35.0,35.0,29.88,NW,326,1.0,4.0,100,0.06,,,0.09,WUHU216DAVISWMX,2013-04-13 07:16:00,
2013-04-13 03:21:00,35.0,35.0,29.90,North,0,1.0,4.0,100,0.06,,,0.09,WUHU216DAVISWMX,2013-04-13 07:21:00,
2013-04-13 03:26:00,34.9,34.9,29.89,NNE,12,0.0,4.0,100,0.06,,,0.09,WUHU216DAVISWMX,2013-04-13 07:26:00,
2013-04-13 03:31:00,35.0,35.0,29.89,NNW,330,1.0,3.0,100,0.06,,,0.09,WUHU216DAVISWMX,2013-04-13 07:31:00,
2013-04-13 03:36:00,34.9,34.9,29.89,North,354,0.0,2.0,100,0.05,,,0.09,WUHU216DAVISWMX,2013-04-13 07:36:00,
2013-04-13 03:42:00,35.0,35.0,29.88,North,354,0.0,2.0,100,0.05,,,0.10,WUHU216DAVISWMX,2013-04-13 07:42:00,
2013-04-13 03:47:00,34.9,34.9,29.86,NNE,18,2.0,3.0,100,0.04,,,0.10,WUHU216DAVISWMX,2013-04-13 07:47:00,
2013-04-13 03:52:00,34.7,34.7,29.86,NNE,18,0.0,3.0,100,0.03,,,0.10,WUHU216DAVISWMX,2013-04-13 07:52:00,
2013-04-13 03:57:00,34.9,34.9,29.86,ENE,65,1.0,4.0,100,0.02,,,0.10,WUHU216DAVISWMX,2013-04-13 07:57:00,
2013-04-13 04:02:00,34.8,34.8,29.86,North,0,1.0,4.0,100,0.01,,,0.10,WUHU216DAVISWMX,2013-04-13 08:02:00,
2013-04-13 04:07:00,34.7,34.7,29.86,NNE,30,1.0,2.0,100,0.01,,,0.10,WUHU216DAVISWMX,2013-04-13 08:07:00,
2013-04-13 04:12:00,34.7,34.7,29.87,NNE,26,1.0,3.0,100,0.01,,,0.10,WUHU216DAVISWMX,2013-04-13 08:12:00,
2013-04-13 04:17:00,34.7,34.7,29.87,NNW,345,2.0,3.0,100,0.01,,,0.10,WUHU216DAVISWMX,2013-04-13 08:17:00,
2013-04-13 04:22:00,34.7,34.7,29.88,North,11,2.0,2.0,100,0.01,,,0.10,WUHU216DAVISWMX,2013-04-13 08:22:00,
2013-04-13 04:27:00,34.6,34.6,29.88,North,5,0.0,2.0,100,0.01,,,0.10,WUHU216DAVISWMX,2013-04-13 08:27:00,
2013-04-13 04:32:00,34.6,34.6,29.88,North,4,0.0,2.0,100,0.01,,,0.10,WUHU216DAVISWMX,2013-04-13 08:32:00,
2013-04-13 04:38:00,34.7,34.7,29.89,North,5,2.0,2.0,100,0.01,,,0.10,WUHU216DAVISWMX,2013-04-13 08:38:00,
2013-04-13 04:43:00,34.7,34.7,29.90,North,4,0.0,2.0,100,0.00,,,0.10,WUHU216DAVISWMX,2013-04-13 08:43:00,
2013-04-13 04:48:00,34.8,34.8,29.90,North,4,0.0,1.0,100,0.00,,,0.10,WUHU216DAVISWMX,2013-04-13 08:48:00,
2013-04-13 04:53:00,34.9,34.9,29.90,North,4,0.0,0.0,100,0.00,,,0.10,WUHU216DAVISWMX,2013-04-13 08:53:00,
2013-04-13 04:58:00,34.8,34.8,29.90,North,4,0.0,1.0,100,0.00,,,0.10,WUHU216DAVISWMX,2013-04-13 08:58:00,
2013-04-13 05:03:00,34.8,34.8,29.89,North,4,0.0,1.0,100,0.00,,,0.10,WUHU216DAVISWMX,2013-04-13 09:03:00,
2013-04-13 05:08:00,34.7,34.7,29.89,North,4,0.0,1.0,100,0.00,,,0.10,WUHU216DAVISWMX,2013-04-13 09:08:00,
2013-04-13 05:13:00,34.8,34.8,29.89,North,4,1.0,2.0,100,0.00,,,0.10,WUHU216DAVISWMX,2013-04-13 09:13:00,
2013-04-13 05:18:00,34.7,34.7,29.90,North,4,0.0,2.0,100,0.00,,,0.10,WUHU216DAVISWMX,2013-04-13 09:18:00,
2013-04-13 05:23:00,34.8,34.8,29.90,North,4,0.0,1.0,100,0.00,,,0.10,WUHU216DAVISWMX,2013-04-13 09:23:00,
2013-04-13 05:28:00,34.9,34.9,29.90,North,4,0.0,0.0,100,0.00,,,0.10,WUHU216DAVISWMX,2013-04-13 09:28:00,
2013-04-13 05:33:00,34.9,34.9,29.90,North,4,0.0,0.0,100,0.00,,,0.10,WUHU216DAVISWMX,2013-04-13 09:33:00,
2013-04-13 05:39:00,34.9,34.9,29.89,North,4,0.0,0.0,100,0.00,,,0.10,WUHU216DAVISWMX,2013-04-13 09:39:00,
2013-04-13 05:44:00,35.0,35.0,29.90,North,4,0.0,0.0,100,0.00,,,0.10,WUHU216DAVISWMX,2013-04-13 09:44:00,
2013-04-13 05:50:00,35.0,35.0,29.90,North,4,0.0,2.0,100,0.00,,,0.10,WUHU216DAVISWMX,2013-04-13 09:50:00,
2013-04-13 05:55:00,35.0,35.0,29.90,North,4,0.0,2.0,100,0.00,,,0.10,WUHU216DAVISWMX,2013-04-13 09:55:00,
2013-04-13 06:00:00,35.0,35.0,29.90,North,4,0.0,1.0,100,0.00,,,0.10,WUHU216DAVISWMX,2013-04-13 10:00:00,
2013-04-13 06:05:00,35.1,35.1,29.90,North,4,0.0,1.0,100,0.00,,,0.10,WUHU216DAVISWMX,2013-04-13 10:05:00,
2013-04-13 06:10:00,35.1,35.1,29.91,North,4,0.0,1.0,100,0.00,,,0.10,WUHU216DAVISWMX,2013-04-13 10:10:00,
2013-04-13 06:15:00,35.1,35.1,29.91,North,4,0.0,1.0,100,0.00,,,0.10,WUHU216DAVISWMX,2013-04-13 10:15:00,
2013-04-13 06:20:00,35.0,35.0,29.91,North,4,0.0,1.0,100,0.00,,,0.10,WUHU216DAVISWMX,2013-04-13 10:20:00,
2013-04-13 06:26:00,35.1,35.1,29.91,North,4,0.0,1.0,100,0.00,,,0.10,WUHU216DAVISWMX,2013-04-13 10:26:00,
2013-04-13 06:31:00,35.2,35.2,29.91,North,4,0.0,1.0,100,0.00,,,0.10,WUHU216DAVISWMX,2013-04-13 10:31:00,
2013-04-13 06:36:00,35.1,35.1,29.91,North,4,0.0,0.0,100,0.00,,,0.10,WUHU216DAVISWMX,2013-04-13 10:36:00,
2013-04-13 06:41:00,35.2,35.2,29.91,North,4,0.0,0.0,100,0.00,,,0.10,WUHU216DAVISWMX,2013-04-13 10:41:00,
2013-04-13 06:46:00,35.2,35.2,29.92,North,4,0.0,2.0,100,0.00,,,0.10,WUHU216DAVISWMX,2013-04-13 10:46:00,
2013-04-13 06:51:00,35.3,35.3,29.92,North,4,0.0,2.0,100,0.00,,,0.10,WUHU216DAVISWMX,2013-04-13 10:51:00,
2013-04-13 06:56:00,35.4,35.4,29.92,North,4,0.0,0.0,100,0.00,,,0.10,WUHU216DAVISWMX,2013-04-13 10:56:00,
2013-04-13 07:02:00,35.4,35.4,29.92,North,4,0.0,0.0,100,0.00,,,0.10,WUHU216DAVISWMX,2013-04-13 11:02:00,
2013-04-13 07:07:00,35.4,35.4,29.92,North,4,0.0,0.0,100,0.00,,,0.10,WUHU216DAVISWMX,2013-04-13 11:07:00,
2013-04-13 07:12:00,35.4,35.4,29.92,North,4,0.0,0.0,100,0.00,,,0.10,WUHU216DAVISWMX,2013-04-13 11:12:00,
2013-04-13 07:17:00,35.4,35.4,29.93,North,4,0.0,1.0,100,0.00,,,0.10,WUHU216DAVISWMX,2013-04-13 11:17:00,
2013-04-13 07:22:00,35.5,35.5,29.93,North,4,0.0,1.0,100,0.00,,,0.10,WUHU216DAVISWMX,2013-04-13 11:22:00,
2013-04-13 07:27:00,35.5,35.5,29.93,North,4,1.0,1.0,100,0.00,,,0.10,WUHU216DAVISWMX,2013-04-13 11:27:00,
2013-04-13 07:32:00,35.6,35.6,29.93,North,4,0.0,1.0,100,0.00,,,0.10,WUHU216DAVISWMX,2013-04-13 11:32:00,
2013-04-13 07:37:00,35.7,35.7,29.93,North,4,0.0,1.0,100,0.00,,,0.10,WUHU216DAVISWMX,2013-04-13 11:37:00,
2013-04-13 07:42:00,35.8,35.8,29.93,NW,304,0.0,2.0,100,0.00,,,0.10,WUHU216DAVISWMX,2013-04-13 11:42:00,
2013-04-13 07:47:00,35.9,35.9,29.92,NW,304,0.0,2.0,100,0.00,,,0.10,WUHU216DAVISWMX,2013-04-13 11:47:00,
2013-04-13 07:52:00,36.0,36.0,29.92,NW,304,0.0,1.0,100,0.00,,,0.10,WUHU216DAVISWMX,2013-04-13 11:52:00,
2013-04-13 07:57:00,36.1,35.8,29.92,NW,305,0.0,1.0,99,0.00,,,0.10,WUHU216DAVISWMX,2013-04-13 11:57:00,
2013-04-13 08:02:00,36.1,35.8,29.91,NW,306,0.0,1.0,99,0.00,,,0.10,WUHU216DAVISWMX,2013-04-13 12:02:00,
2013-04-13 08:15:00,36.4,35.9,29.92,NW,306,0.0,0.0,98,0.00,,,0.10,WUHU216DAVISWMX,2013-04-13 12:15:00,
2013-04-13 08:20:00,36.5,36.0,29.92,NW,306,0.0,0.0,98,0.00,,,0.10,WUHU216DAVISWMX,2013-04-13 12:20:00,
2013-04-13 08:25:00,36.6,36.1,29.92,NW,305,0.0,0.0,98,0.00,,,0.10,WUHU216DAVISWMX,2013-04-13 12:25:00,
2013-04-13 08:30:00,36.7,36.2,29.92,NW,309,1.0,3.0,98,0.00,,,0.10,WUHU216DAVISWMX,2013-04-13 12:30:00,
2013-04-13 08:35:00,36.7,35.9,29.92,NW,309,1.0,3.0,97,0.00,,,0.10,WUHU216DAVISWMX,2013-04-13 12:35:00,
2013-04-13 08:40:00,36.8,36.0,29.92,NW,309,1.0,1.0,97,0.00,,,0.10,WUHU216DAVISWMX,2013-04-13 12:40:00,
2013-04-13 08:45:00,36.8,36.0,29.92,NW,309,0.0,2.0,97,0.00,,,0.10,WUHU216DAVISWMX,2013-04-13 12:45:00,
2013-04-13 08:50:00,36.9,36.1,29.92,North,353,0.0,2.0,97,0.00,,,0.10,WUHU216DAVISWMX,2013-04-13 12:50:00,
2013-04-13 08:55:00,37.1,36.3,29.92,North,352,0.0,2.0,97,0.00,,,0.10,WUHU216DAVISWMX,2013-04-13 12:55:00,
2013-04-13 09:00:00,37.3,36.5,29.92,NE,54,0.0,2.0,97,0.00,,,0.10,WUHU216DAVISWMX,2013-04-13 13:00:00,
2013-04-13 09:05:00,37.5,36.4,29.92,ESE,105,0.0,2.0,96,0.00,,,0.10,WUHU216DAVISWMX,2013-04-13 13:05:00,
2013-04-13 09:10:00,37.7,36.1,29.92,North,0,1.0,3.0,94,0.00,,,0.10,WUHU216DAVISWMX,2013-04-13 13:10:00,
2013-04-13 09:16:00,37.9,36.6,29.92,East,91,2.0,3.0,95,0.00,,,0.10,WUHU216DAVISWMX,2013-04-13 13:16:00,
2013-04-13 09:21:00,38.1,36.5,29.92,ENE,67,1.0,2.0,94,0.00,,,0.10,WUHU216DAVISWMX,2013-04-13 13:21:00,
2013-04-13 09:26:00,38.0,36.4,29.92,ENE,67,2.0,2.0,94,0.00,,,0.10,WUHU216DAVISWMX,2013-04-13 13:26:00,
2013-04-13 09:31:00,38.2,36.6,29.92,ENE,67,0.0,2.0,94,0.00,,,0.10,WUHU216DAVISWMX,2013-04-13 13:31:00,
2013-04-13 09:36:00,38.4,36.8,29.92,ENE,67,0.0,1.0,94,0.00,,,0.10,WUHU216DAVISWMX,2013-04-13 13:36:00,
2013-04-13 09:42:00,38.6,37.2,29.92,NW,326,0.0,2.0,95,0.00,,,0.10,WUHU216DAVISWMX,2013-04-13 13:42:00,
2013-04-13 09:47:00,38.8,37.2,29.92,NNW,327,0.0,2.0,94,0.00,,,0.10,WUHU216DAVISWMX,2013-04-13 13:47:00,
2013-04-13 09:52:00,39.0,37.1,29.93,NNW,327,0.0,0.0,93,0.00,,,0.10,WUHU216DAVISWMX,2013-04-13 13:52:00,
2013-04-13 09:57:00,39.4,37.2,29.93,NNW,327,0.0,0.0,92,0.00,,,0.10,WUHU216DAVISWMX,2013-04-13 13:57:00,
2013-04-13 10:02:00,39.5,37.3,29.93,NW,326,0.0,1.0,92,0.00,,,0.10,WUHU216DAVISWMX,2013-04-13 14:02:00,
2013-04-13 10:07:00,39.6,37.7,29.93,NNW,327,0.0,2.0,93,0.00,,,0.10,WUHU216DAVISWMX,2013-04-13 14:07:00,
2013-04-13 10:12:00,40.0,37.8,29.93,NNW,327,1.0,3.0,92,0.00,,,0.10,WUHU216DAVISWMX,2013-04-13 14:12:00,
2013-04-13 10:17:00,40.1,37.6,29.93,NW,316,0.0,3.0,91,0.00,,,0.10,WUHU216DAVISWMX,2013-04-13 14:17:00,
2013-04-13 10:22:00,40.2,38.0,29.93,WSW,254,0.0,3.0,92,0.00,,,0.10,WUHU216DAVISWMX,2013-04-13 14:22:00,
2013-04-13 10:27:00,40.9,38.7,29.93,WSW,246,0.0,2.0,92,0.00,,,0.10,WUHU216DAVISWMX,2013-04-13 14:27:00,
2013-04-13 10:32:00,41.2,38.4,29.93,WSW,246,0.0,2.0,90,0.00,,,0.10,WUHU216DAVISWMX,2013-04-13 14:32:00,
2013-04-13 10:38:00,41.7,38.9,29.92,SW,233,0.0,2.0,90,0.00,,,0.10,WUHU216DAVISWMX,2013-04-13 14:38:00,
2013-04-13 10:43:00,42.4,39.6,29.92,WNW,286,1.0,3.0,90,0.00,,,0.10,WUHU216DAVISWMX,2013-04-13 14:43:00,
2013-04-13 10:48:00,42.9,39.8,29.92,WNW,287,0.0,3.0,89,0.00,,,0.10,WUHU216DAVISWMX,2013-04-13 14:48:00,
2013-04-13 10:53:00,43.5,40.1,29.92,WNW,287,2.0,2.0,88,0.00,,,0.10,WUHU216DAVISWMX,2013-04-13 14:53:00,
2013-04-13 10:58:00,43.8,40.4,29.92,NW,305,2.0,2.0,88,0.00,,,0.10,WUHU216DAVISWMX,2013-04-13 14:58:00,
2013-04-13 11:03:00,44.0,40.1,29.92,ENE,75,0.0,2.0,86,0.00,,,0.10,WUHU216DAVISWMX,2013-04-13 15:03:00,
2013-04-13 11:08:00,44.2,40.5,29.92,NW,309,2.0,3.0,87,0.00,,,0.10,WUHU216DAVISWMX,2013-04-13 15:08:00,
2013-04-13 11:13:00,44.7,41.3,29.92,SSW,208,3.0,3.0,88,0.00,,,0.10,WUHU216DAVISWMX,2013-04-13 15:13:00,
2013-04-13 11:18:00,44.8,40.8,29.92,SSW,208,0.0,3.0,86,0.00,,,0.10,WUHU216DAVISWMX,2013-04-13 15:18:00,
2013-04-13 11:24:00,45.3,41.3,29.92,WNW,302,1.0,4.0,86,0.00,,,0.10,WUHU216DAVISWMX,2013-04-13 15:24:00,
2013-04-13 11:29:00,45.7,41.4,29.92,NW,312,3.0,6.0,85,0.00,,,0.10,WUHU216DAVISWMX,2013-04-13 15:29:00,
2013-04-13 11:34:00,46.1,40.3,29.92,NNW,335,3.0,7.0,80,0.00,,,0.10,WUHU216DAVISWMX,2013-04-13 15:34:00,
2013-04-13 11:39:00,46.1,40.0,29.91,NNW,331,4.0,7.0,79,0.00,,,0.10,WUHU216DAVISWMX,2013-04-13 15:39:00,
2013-04-13 11:44:00,46.5,40.7,29.91,NNW,329,4.0,7.0,80,0.00,,,0.10,WUHU216DAVISWMX,2013-04-13 15:44:00,
2013-04-13 11:49:00,46.9,41.1,29.92,NNW,329,3.0,7.0,80,0.00,,,0.10,WUHU216DAVISWMX,2013-04-13 15:49:00,
2013-04-13 11:54:00,46.9,41.1,29.92,North,359,1.0,7.0,80,0.00,,,0.10,WUHU216DAVISWMX,2013-04-13 15:54:00,
2013-04-13 11:59:00,47.1,41.9,29.91,NW,321,2.0,7.0,82,0.00,,,0.10,WUHU216DAVISWMX,2013-04-13 15:59:00,
2013-04-13 12:04:00,47.6,41.8,29.91,West,265,0.0,3.0,80,0.00,,,0.10,WUHU216DAVISWMX,2013-04-13 16:04:00,
2013-04-13 12:09:00,48.0,41.8,29.91,NNE,31,3.0,5.0,79,0.00,,,0.10,WUHU216DAVISWMX,2013-04-13 16:09:00,
2013-04-13 12:14:00,48.0,41.8,29.91,NNW,329,4.0,7.0,79,0.00,,,0.10,WUHU216DAVISWMX,2013-04-13 16:14:00,
2013-04-13 12:19:00,47.9,41.1,29.91,NW,304,0.0,8.0,77,0.00,,,0.10,WUHU216DAVISWMX,2013-04-13 16:19:00,
2013-04-13 12:24:00,48.2,42.0,29.91,WNW,301,3.0,8.0,79,0.00,,,0.10,WUHU216DAVISWMX,2013-04-13 16:24:00,
2013-04-13 12:29:00,48.5,41.7,29.91,NW,316,1.0,7.0,77,0.00,,,0.10,WUHU216DAVISWMX,2013-04-13 16:29:00,
2013-04-13 12:34:00,48.8,42.9,29.91,WNW,289,1.0,7.0,80,0.00,,,0.10,WUHU216DAVISWMX,2013-04-13 16:34:00,
2013-04-13 12:39:00,49.1,42.6,29.91,NNW,328,0.0,5.0,78,0.00,,,0.10,WUHU216DAVISWMX,2013-04-13 16:39:00,
2013-04-13 12:44:00,49.1,42.6,29.91,NW,316,2.0,5.0,78,0.00,,,0.10,WUHU216DAVISWMX,2013-04-13 16:44:00,
2013-04-13 12:50:00,49.1,42.6,29.90,West,262,0.0,6.0,78,0.00,,,0.10,WUHU216DAVISWMX,2013-04-13 16:50:00,
2013-04-13 12:55:00,49.2,42.0,29.91,NW,319,1.0,7.0,76,0.00,,,0.10,WUHU216DAVISWMX,2013-04-13 16:55:00,
2013-04-13 13:00:00,49.6,42.7,29.90,NW,322,3.0,7.0,77,0.00,,,0.10,WUHU216DAVISWMX,2013-04-13 17:00:00,
2013-04-13 13:05:00,49.8,41.9,29.90,NW,310,1.0,6.0,74,0.00,,,0.10,WUHU216DAVISWMX,2013-04-13 17:05:00,
2013-04-13 13:10:00,50.1,43.2,29.90,NNW,331,3.0,6.0,77,0.00,,,0.10,WUHU216DAVISWMX,2013-04-13 17:10:00,
2013-04-13 13:15:00,50.1,42.6,29.90,NW,326,1.0,5.0,75,0.00,,,0.10,WUHU216DAVISWMX,2013-04-13 17:15:00,
2013-04-13 13:20:00,50.0,42.5,29.90,WNW,282,0.0,6.0,75,0.00,,,0.10,WUHU216DAVISWMX,2013-04-13 17:20:00,
2013-04-13 13:25:00,49.8,41.6,29.90,WNW,302,0.0,6.0,73,0.00,,,0.10,WUHU216DAVISWMX,2013-04-13 17:25:00,
2013-04-13 13:30:00,49.7,41.8,29.90,North,0,0.0,4.0,74,0.00,,,0.10,WUHU216DAVISWMX,2013-04-13 17:30:00,
2013-04-13 13:35:00,49.5,42.3,29.90,WNW,300,3.0,3.0,76,0.00,,,0.10,WUHU216DAVISWMX,2013-04-13 17:35:00,
2013-04-13 13:40:00,49.2,41.7,29.89,NW,317,0.0,5.0,75,0.00,,,0.10,WUHU216DAVISWMX,2013-04-13 17:40:00,
2013-04-13 13:45:00,49.2,42.4,29.89,NW,317,0.0,5.0,77,0.00,,,0.10,WUHU216DAVISWMX,2013-04-13 17:45:00,
2013-04-13 13:50:00,49.5,42.6,29.89,NW,309,0.0,4.0,77,0.00,,,0.10,WUHU216DAVISWMX,2013-04-13 17:50:00,
2013-04-13 13:56:00,49.7,41.8,29.88,West,265,0.0,4.0,74,0.00,,,0.10,WUHU216DAVISWMX,2013-04-13 17:56:00,
2013-04-13 14:01:00,49.8,41.2,29.88,North,350,0.0,4.0,72,0.00,,,0.10,WUHU216DAVISWMX,2013-04-13 18:01:00,
2013-04-13 14:06:00,50.0,42.1,29.88,WNW,283,0.0,4.0,74,0.00,,,0.10,WUHU216DAVISWMX,2013-04-13 18:06:00,
2013-04-13 14:11:00,50.1,41.5,29.88,NW,326,2.0,4.0,72,0.00,,,0.10,WUHU216DAVISWMX,2013-04-13 18:11:00,
2013-04-13 14:16:00,49.9,41.0,29.88,NW,326,1.0,5.0,71,0.00,,,0.10,WUHU216DAVISWMX,2013-04-13 18:16:00,
2013-04-13 14:21:00,49.7,40.8,29.89,NNW,327,1.0,5.0,71,0.00,,,0.10,WUHU216DAVISWMX,2013-04-13 18:21:00,
2013-04-13 14:27:00,49.6,40.7,29.88,North,352,3.0,3.0,71,0.00,,,0.10,WUHU216DAVISWMX,2013-04-13 18:27:00,
2013-04-13 14:32:00,49.5,41.3,29.88,North,0,1.0,3.0,73,0.00,,,0.10,WUHU216DAVISWMX,2013-04-13 18:32:00,
2013-04-13 14:37:00,49.5,41.3,29.88,North,0,0.0,2.0,73,0.00,,,0.10,WUHU216DAVISWMX,2013-04-13 18:37:00,
2013-04-13 14:42:00,49.6,41.4,29.88,North,0,0.0,1.0,73,0.00,,,0.10,WUHU216DAVISWMX,2013-04-13 18:42:00,
2013-04-13 14:47:00,49.8,41.2,29.88,NNE,28,2.0,2.0,72,0.00,,,0.10,WUHU216DAVISWMX,2013-04-13 18:47:00,
2013-04-13 14:52:00,49.7,40.8,29.88,NW,326,3.0,5.0,71,0.00,,,0.10,WUHU216DAVISWMX,2013-04-13 18:52:00,
2013-04-13 14:57:00,49.6,40.3,29.88,NNE,15,0.0,5.0,70,0.00,,,0.10,WUHU216DAVISWMX,2013-04-13 18:57:00,
2013-04-13 15:02:00,49.6,40.7,29.88,WNW,282,0.0,2.0,71,0.00,,,0.10,WUHU216DAVISWMX,2013-04-13 19:02:00,
2013-04-13 15:07:00,49.7,41.5,29.88,West,281,2.0,2.0,73,0.00,,,0.10,WUHU216DAVISWMX,2013-04-13 19:07:00,
2013-04-13 15:12:00,49.8,41.2,29.88,WNW,283,0.0,2.0,72,0.00,,,0.10,WUHU216DAVISWMX,2013-04-13 19:12:00,
2013-04-13 15:17:00,49.9,41.0,29.88,North,352,1.0,2.0,71,0.00,,,0.10,WUHU216DAVISWMX,2013-04-13 19:17:00,
2013-04-13 15:22:00,50.1,41.5,29.88,North,349,1.0,2.0,72,0.00,,,0.10,WUHU216DAVISWMX,2013-04-13 19:22:00,
2013-04-13 15:27:00,50.4,41.8,29.88,NW,320,3.0,3.0,72,0.00,,,0.10,WUHU216DAVISWMX,2013-04-13 19:27:00,
2013-04-13 15:32:00,50.5,40.8,29.88,NW,325,3.0,4.0,69,0.00,,,0.10,WUHU216DAVISWMX,2013-04-13 19:32:00,
2013-04-13 15:37:00,50.7,42.1,29.88,NW,325,0.0,4.0,72,0.00,,,0.10,WUHU216DAVISWMX,2013-04-13 19:37:00,
2013-04-13 15:42:00,50.8,41.8,29.88,WNW,303,2.0,5.0,71,0.00,,,0.10,WUHU216DAVISWMX,2013-04-13 19:42:00,
2013-04-13 15:47:00,51.1,42.1,29.87,West,263,2.0,5.0,71,0.00,,,0.10,WUHU216DAVISWMX,2013-04-13 19:47:00,
2013-04-13 15:53:00,51.5,41.4,29.87,SW,218,4.0,6.0,68,0.00,,,0.10,WUHU216DAVISWMX,2013-04-13 19:53:00,
2013-04-13 15:58:00,51.6,41.9,29.87,SW,226,0.0,6.0,69,0.00,,,0.10,WUHU216DAVISWMX,2013-04-13 19:58:00,
2013-04-13 16:03:00,51.7,41.2,29.87,ESE,107,0.0,6.0,67,0.00,,,0.10,WUHU216DAVISWMX,2013-04-13 20:03:00,
2013-04-13 16:08:00,51.7,40.4,29.87,ESE,107,0.0,3.0,65,0.00,,,0.10,WUHU216DAVISWMX,2013-04-13 20:08:00,
2013-04-13 16:13:00,51.6,40.3,29.87,ESE,107,0.0,3.0,65,0.00,,,0.10,WUHU216DAVISWMX,2013-04-13 20:13:00,
2013-04-13 16:18:00,51.6,40.3,29.87,NNE,28,3.0,3.0,65,0.00,,,0.10,WUHU216DAVISWMX,2013-04-13 20:18:00,
2013-04-13 16:23:00,51.5,41.0,29.87,NNE,27,0.0,3.0,67,0.00,,,0.10,WUHU216DAVISWMX,2013-04-13 20:23:00,
2013-04-13 16:28:00,51.5,40.2,29.87,NNE,27,1.0,3.0,65,0.00,,,0.10,WUHU216DAVISWMX,2013-04-13 20:28:00,
2013-04-13 16:33:00,51.6,40.3,29.87,NNE,27,0.0,2.0,65,0.00,,,0.10,WUHU216DAVISWMX,2013-04-13 20:33:00,
2013-04-13 16:38:00,51.7,40.0,29.88,NNE,27,1.0,2.0,64,0.00,,,0.10,WUHU216DAVISWMX,2013-04-13 20:38:00,
2013-04-13 16:43:00,51.6,40.3,29.89,NNE,27,0.0,2.0,65,0.00,,,0.10,WUHU216DAVISWMX,2013-04-13 20:43:00,
2013-04-13 16:48:00,51.6,40.3,29.89,NNE,27,0.0,0.0,65,0.00,,,0.10,WUHU216DAVISWMX,2013-04-13 20:48:00,
2013-04-13 16:53:00,51.6,40.7,29.89,NNE,27,0.0,0.0,66,0.00,,,0.10,WUHU216DAVISWMX,2013-04-13 20:53:00,
2013-04-13 16:58:00,51.7,41.2,29.89,NNE,27,0.0,0.0,67,0.00,,,0.10,WUHU216DAVISWMX,2013-04-13 20:58:00,
2013-04-13 17:03:00,51.6,40.7,29.89,North,0,0.0,3.0,66,0.00,,,0.10,WUHU216DAVISWMX,2013-04-13 21:03:00,
2013-04-13 17:08:00,51.6,41.1,29.90,North,0,0.0,3.0,67,0.00,,,0.10,WUHU216DAVISWMX,2013-04-13 21:08:00,
2013-04-13 17:13:00,51.6,41.1,29.90,North,0,0.0,0.0,67,0.00,,,0.10,WUHU216DAVISWMX,2013-04-13 21:13:00,
2013-04-13 17:18:00,51.5,41.4,29.90,North,0,0.0,2.0,68,0.00,,,0.10,WUHU216DAVISWMX,2013-04-13 21:18:00,
2013-04-13 17:23:00,51.6,41.9,29.90,North,0,0.0,2.0,69,0.00,,,0.10,WUHU216DAVISWMX,2013-04-13 21:23:00,
2013-04-13 17:28:00,51.6,42.6,29.91,North,0,0.0,0.0,71,0.00,,,0.10,WUHU216DAVISWMX,2013-04-13 21:28:00,
2013-04-13 17:33:00,51.6,42.2,29.91,North,6,0.0,1.0,70,0.00,,,0.10,WUHU216DAVISWMX,2013-04-13 21:33:00,
2013-04-13 17:38:00,51.4,41.7,29.91,North,6,0.0,1.0,69,0.00,,,0.10,WUHU216DAVISWMX,2013-04-13 21:38:00,
2013-04-13 17:43:00,51.3,42.0,29.91,North,6,0.0,0.0,70,0.00,,,0.10,WUHU216DAVISWMX,2013-04-13 21:43:00,
2013-04-13 17:48:00,51.2,42.6,29.92,North,6,0.0,0.0,72,0.00,,,0.10,WUHU216DAVISWMX,2013-04-13 21:48:00,
2013-04-13 17:53:00,50.9,41.9,29.91,West,269,2.0,7.0,71,0.00,,,0.10,WUHU216DAVISWMX,2013-04-13 21:53:00,
2013-04-13 17:58:00,50.7,41.4,29.91,WNW,303,0.0,7.0,70,0.00,,,0.10,WUHU216DAVISWMX,2013-04-13 21:58:00,
2013-04-13 18:03:00,50.6,40.5,29.92,NW,307,2.0,4.0,68,0.00,,,0.10,WUHU216DAVISWMX,2013-04-13 22:03:00,
2013-04-13 18:08:00,50.6,40.9,29.92,NNW,339,0.0,4.0,69,0.00,,,0.10,WUHU216DAVISWMX,2013-04-13 22:08:00,
2013-04-13 18:13:00,50.6,40.5,29.92,NW,312,1.0,4.0,68,0.00,,,0.10,WUHU216DAVISWMX,2013-04-13 22:13:00,
2013-04-13 18:18:00,50.5,40.8,29.92,North,0,0.0,4.0,69,0.00,,,0.10,WUHU216DAVISWMX,2013-04-13 22:18:00,
2013-04-13 18:23:00,50.5,40.4,29.93,NNW,344,0.0,3.0,68,0.00,,,0.10,WUHU216DAVISWMX,2013-04-13 22:23:00,
2013-04-13 18:28:00,50.4,40.7,29.93,NNW,335,2.0,3.0,69,0.00,,,0.10,WUHU216DAVISWMX,2013-04-13 22:28:00,
2013-04-13 18:33:00,50.3,40.2,29.93,NW,316,0.0,3.0,68,0.00,,,0.10,WUHU216DAVISWMX,2013-04-13 22:33:00,
2013-04-13 18:38:00,50.2,40.5,29.93,WNW,295,0.0,3.0,69,0.00,,,0.10,WUHU216DAVISWMX,2013-04-13 22:38:00,
2013-04-13 18:43:00,50.1,40.4,29.93,WNW,285,1.0,4.0,69,0.00,,,0.10,WUHU216DAVISWMX,2013-04-13 22:43:00,
2013-04-13 18:48:00,50.0,40.3,29.93,West,259,1.0,6.0,69,0.00,,,0.10,WUHU216DAVISWMX,2013-04-13 22:48:00,
2013-04-13 18:53:00,49.9,40.6,29.93,West,259,0.0,6.0,70,0.00,,,0.10,WUHU216DAVISWMX,2013-04-13 22:53:00,
2013-04-13 18:58:00,49.8,40.5,29.93,NW,307,0.0,2.0,70,0.00,,,0.10,WUHU216DAVISWMX,2013-04-13 22:58:00,
2013-04-13 19:03:00,49.7,40.8,29.93,NW,307,1.0,2.0,71,0.00,,,0.10,WUHU216DAVISWMX,2013-04-13 23:03:00,
2013-04-13 19:08:00,49.6,40.7,29.93,NW,307,0.0,1.0,71,0.00,,,0.10,WUHU216DAVISWMX,2013-04-13 23:08:00,
2013-04-13 19:13:00,49.5,40.6,29.93,NW,307,0.0,1.0,71,0.00,,,0.10,WUHU216DAVISWMX,2013-04-13 23:13:00,
2013-04-13 19:18:00,49.3,40.4,29.93,NW,307,0.0,0.0,71,0.00,,,0.10,WUHU216DAVISWMX,2013-04-13 23:18:00,
2013-04-13 19:23:00,49.2,40.6,29.93,NW,307,0.0,0.0,72,0.00,,,0.10,WUHU216DAVISWMX,2013-04-13 23:23:00,
2013-04-13 19:28:00,49.1,40.6,29.93,NW,307,0.0,0.0,72,0.00,,,0.10,WUHU216DAVISWMX,2013-04-13 23:28:00,
2013-04-13 19:33:00,49.0,40.5,29.93,NW,307,0.0,0.0,72,0.00,,,0.10,WUHU216DAVISWMX,2013-04-13 23:33:00,
2013-04-13 19:38:00,48.9,40.4,29.93,NW,307,0.0,0.0,72,0.00,,,0.10,WUHU216DAVISWMX,2013-04-13 23:38:00,
2013-04-13 19:43:00,48.8,41.0,29.94,NW,307,0.0,0.0,74,0.00,,,0.10,WUHU216DAVISWMX,2013-04-13 23:43:00,
2013-04-13 19:48:00,48.6,41.4,29.94,NW,307,0.0,0.0,76,0.00,,,0.10,WUHU216DAVISWMX,2013-04-13 23:48:00,
2013-04-13 19:53:00,48.4,41.2,29.95,NW,307,0.0,0.0,76,0.00,,,0.10,WUHU216DAVISWMX,2013-04-13 23:53:00,
2013-04-13 19:58:00,48.4,41.6,29.95,NW,307,0.0,0.0,77,0.00,,,0.10,WUHU216DAVISWMX,2013-04-13 23:58:00,
2013-04-13 20:03:00,48.2,40.7,29.96,NW,307,0.0,0.0,75,0.00,,,0.10,WUHU216DAVISWMX,2013-04-14 00:03:00,
2013-04-13 20:08:00,48.2,41.1,29.96,NW,307,0.0,0.0,76,0.00,,,0.10,WUHU216DAVISWMX,2013-04-14 00:08:00,
2013-04-13 20:13:00,48.2,41.1,29.96,NW,307,0.0,0.0,76,0.00,,,0.10,WUHU216DAVISWMX,2013-04-14 00:13:00,
2013-04-13 20:18:00,48.1,41.0,29.96,NW,307,0.0,0.0,76,0.00,,,0.10,WUHU216DAVISWMX,2013-04-14 00:18:00,
2013-04-13 20:23:00,48.0,41.2,29.96,NW,307,0.0,0.0,77,0.00,,,0.10,WUHU216DAVISWMX,2013-04-14 00:23:00,
2013-04-13 20:28:00,47.9,41.1,29.96,NW,307,0.0,0.0,77,0.00,,,0.10,WUHU216DAVISWMX,2013-04-14 00:28:00,
2013-04-13 20:33:00,47.9,41.1,29.96,NW,307,0.0,0.0,77,0.00,,,0.10,WUHU216DAVISWMX,2013-04-14 00:33:00,
2013-04-13 20:38:00,47.7,41.2,29.97,NW,307,0.0,0.0,78,0.00,,,0.10,WUHU216DAVISWMX,2013-04-14 00:38:00,
2013-04-13 20:43:00,47.6,41.4,29.97,NW,307,0.0,0.0,79,0.00,,,0.10,WUHU216DAVISWMX,2013-04-14 00:43:00,
2013-04-13 20:48:00,47.5,41.0,29.97,NW,307,0.0,0.0,78,0.00,,,0.10,WUHU216DAVISWMX,2013-04-14 00:48:00,
2013-04-13 20:53:00,47.3,41.2,29.97,NW,307,0.0,0.0,79,0.00,,,0.10,WUHU216DAVISWMX,2013-04-14 00:53:00,
2013-04-13 20:58:00,47.2,41.4,29.97,NW,307,0.0,0.0,80,0.00,,,0.10,WUHU216DAVISWMX,2013-04-14 00:58:00,
2013-04-13 21:03:00,47.2,41.4,29.97,NW,307,0.0,0.0,80,0.00,,,0.10,WUHU216DAVISWMX,2013-04-14 01:03:00,
2013-04-13 21:08:00,47.0,41.2,29.97,NW,307,0.0,0.0,80,0.00,,,0.10,WUHU216DAVISWMX,2013-04-14 01:08:00,
2013-04-13 21:13:00,46.9,41.4,29.97,NW,307,0.0,0.0,81,0.00,,,0.10,WUHU216DAVISWMX,2013-04-14 01:13:00,
2013-04-13 21:18:00,46.9,41.4,29.97,NW,307,0.0,0.0,81,0.00,,,0.10,WUHU216DAVISWMX,2013-04-14 01:18:00,
2013-04-13 21:23:00,46.8,41.6,29.97,NW,307,0.0,0.0,82,0.00,,,0.10,WUHU216DAVISWMX,2013-04-14 01:23:00,
2013-04-13 21:28:00,46.8,41.6,29.97,NW,307,0.0,0.0,82,0.00,,,0.10,WUHU216DAVISWMX,2013-04-14 01:28:00,
2013-04-13 21:33:00,46.7,41.5,29.97,NW,307,0.0,0.0,82,0.00,,,0.10,WUHU216DAVISWMX,2013-04-14 01:33:00,
2013-04-13 21:38:00,46.6,41.1,29.97,NW,307,0.0,0.0,81,0.00,,,0.10,WUHU216DAVISWMX,2013-04-14 01:38:00,
2013-04-13 21:44:00,46.5,41.3,29.97,NW,307,0.0,0.0,82,0.00,,,0.10,WUHU216DAVISWMX,2013-04-14 01:44:00,
2013-04-13 21:49:00,46.4,41.5,29.98,NW,307,0.0,0.0,83,0.00,,,0.10,WUHU216DAVISWMX,2013-04-14 01:49:00,
2013-04-13 21:54:00,46.3,41.4,29.98,NW,307,0.0,0.0,83,0.00,,,0.10,WUHU216DAVISWMX,2013-04-14 01:54:00,
2013-04-13 21:59:00,46.3,41.4,29.98,NW,307,0.0,0.0,83,0.00,,,0.10,WUHU216DAVISWMX,2013-04-14 01:59:00,
2013-04-13 22:04:00,46.2,41.6,29.98,NW,307,0.0,0.0,84,0.00,,,0.10,WUHU216DAVISWMX,2013-04-14 02:04:00,
2013-04-13 22:09:00,46.2,41.9,29.98,NW,307,0.0,0.0,85,0.00,,,0.10,WUHU216DAVISWMX,2013-04-14 02:09:00,
2013-04-13 22:14:00,46.0,42.0,29.98,NW,307,0.0,0.0,86,0.00,,,0.10,WUHU216DAVISWMX,2013-04-14 02:14:00,
2013-04-13 22:19:00,46.0,42.0,29.98,NW,307,0.0,0.0,86,0.00,,,0.10,WUHU216DAVISWMX,2013-04-14 02:19:00,
2013-04-13 22:24:00,45.9,41.9,29.98,NW,307,0.0,0.0,86,0.00,,,0.10,WUHU216DAVISWMX,2013-04-14 02:24:00,
2013-04-13 22:29:00,45.8,42.1,29.98,NW,307,0.0,0.0,87,0.00,,,0.10,WUHU216DAVISWMX,2013-04-14 02:29:00,
2013-04-13 22:34:00,45.6,41.9,29.98,NW,307,0.0,0.0,87,0.00,,,0.10,WUHU216DAVISWMX,2013-04-14 02:34:00,
2013-04-13 22:39:00,45.5,41.5,29.98,NW,307,0.0,0.0,86,0.00,,,0.10,WUHU216DAVISWMX,2013-04-14 02:39:00,
2013-04-13 22:44:00,45.3,41.6,29.98,NW,307,0.0,0.0,87,0.00,,,0.10,WUHU216DAVISWMX,2013-04-14 02:44:00,
2013-04-13 22:49:00,45.2,41.5,29.98,NW,307,0.0,0.0,87,0.00,,,0.10,WUHU216DAVISWMX,2013-04-14 02:49:00,
2013-04-13 22:54:00,45.1,41.7,29.99,NW,307,0.0,0.0,88,0.00,,,0.10,WUHU216DAVISWMX,2013-04-14 02:54:00,
2013-04-13 22:59:00,45.0,41.3,29.99,NW,307,0.0,0.0,87,0.00,,,0.10,WUHU216DAVISWMX,2013-04-14 02:59:00,
2013-04-13 23:04:00,44.8,41.4,29.99,NW,307,0.0,0.0,88,0.00,,,0.10,WUHU216DAVISWMX,2013-04-14 03:04:00,
2013-04-13 23:09:00,44.8,41.4,30.00,NW,323,2.0,4.0,88,0.00,,,0.10,WUHU216DAVISWMX,2013-04-14 03:09:00,
2013-04-13 23:14:00,44.7,41.3,30.00,NW,323,2.0,4.0,88,0.00,,,0.10,WUHU216DAVISWMX,2013-04-14 03:14:00,
2013-04-13 23:19:00,44.8,41.1,30.01,West,272,1.0,5.0,87,0.00,,,0.10,WUHU216DAVISWMX,2013-04-14 03:19:00,
2013-04-13 23:24:00,45.2,41.2,30.01,NW,314,2.0,5.0,86,0.00,,,0.10,WUHU216DAVISWMX,2013-04-14 03:24:00,
2013-04-13 23:29:00,45.4,41.1,30.01,WSW,240,4.0,5.0,85,0.00,,,0.10,WUHU216DAVISWMX,2013-04-14 03:29:00,
2013-04-13 23:34:00,45.6,41.0,30.01,WNW,289,0.0,5.0,84,0.00,,,0.10,WUHU216DAVISWMX,2013-04-14 03:34:00,
2013-04-13 23:39:00,45.7,40.8,30.00,NW,325,0.0,6.0,83,0.00,,,0.10,WUHU216DAVISWMX,2013-04-14 03:39:00,
2013-04-13 23:44:00,45.7,40.8,30.01,NW,325,1.0,6.0,83,0.00,,,0.10,WUHU216DAVISWMX,2013-04-14 03:44:00,
2013-04-13 23:49:00,45.7,40.8,30.01,NW,325,0.0,3.0,83,0.00,,,0.10,WUHU216DAVISWMX,2013-04-14 03:49:00,
2013-04-13 23:54:00,45.7,40.8,30.00,NW,325,1.0,2.0,83,0.00,,,0.10,WUHU216DAVISWMX,2013-04-14 03:54:00,
2013-04-13 23:59:00,45.7,40.8,30.01,NW,325,0.0,2.0,83,0.00,,,0.10,WUHU216DAVISWMX,2013-04-14 03:59:00,